Iowa Falls, IA

2:40 AM CDT on June 24, 2017 (GMT -0500)
Iowa Falls Municipal

Weather History for KIFA - November, 2012

Change the Weather History Date:

Thursday, November 1, 2012

  Actual Average Record
Temperature  
Mean Temperature 40 °F -  
Max Temperature 52 °F 53 °F 76 °F (1990)
Min Temperature 29 °F 37 °F 17 °F (1951)
Degree Days  
Heating Degree Days 24    
Moisture  
Dew Point 31 °F    
Average Humidity 65    
Maximum Humidity 81    
Minimum Humidity 43    
Precipitation  
Precipitation 0.00 in - - ()
Sea Level Pressure  
Sea Level Pressure 29.96 in    
Wind  
Wind Speed 9 mph (NW)    
Max Wind Speed 18 mph    
Max Gust Speed 24 mph    
Visibility 7 miles    
Events      
Averages and records for this station are not official NWS values.
T = Trace of Precipitation, MM = Missing Value Source: NWS Daily Summary

Daily Weather History Graph

Daily Weather History Graph

Search for Another Location

Airport or City:

Trip Planner

Search our weather history database for the weather conditions in past years. The results will help you decide how hot, cold, wet, or windy it might be!

Date:

Astronomy

Nov. 01, 2012 Rise Set
Actual Time 7:47 AM CDT 6:05 PM CDT
Civil Twilight 7:17 AM CDT 6:34 PM CDT
Nautical Twilight 6:44 AM CDT 7:07 PM CDT
Astronomical Twilight 6:11 AM CDT 7:40 PM CDT
Moon 8:00 PM CDT (11/1) 10:22 AM CDT (11/1)
Length of Visible Light 11h 16m
Length of Day
10h 18m
Waning Gibbous, 93% of the Moon is Illuminated
Nov 1
Waning Gibbous
Nov 6
Last Quarter
Nov 13
New
Nov 20
First Quarter
Nov 28
Full

Hourly Weather History & Observations

Time (CDT) Temp. Windchill Dew Point Humidity Pressure Visibility Wind Dir Wind Speed Gust Speed Precip Events Conditions
12:15 AM 33.1 °F 30.0 °F 25.2 °F 73% 29.97 in 7.0 mi West 3.5 mph - N/A   Mostly Cloudy
12:35 AM 33.6 °F 29.4 °F 25.7 °F 73% 29.97 in 7.0 mi WSW 4.6 mph - N/A   Mostly Cloudy
12:55 AM 34.7 °F 30.6 °F 25.9 °F 70% 29.96 in 7.0 mi WSW 4.6 mph - N/A   Mostly Cloudy
1:15 AM 35.4 °F 31.5 °F 26.4 °F 70% 29.96 in 7.0 mi WSW 4.6 mph - N/A   Mostly Cloudy
1:35 AM 34.3 °F 30.2 °F 26.6 °F 73% 29.95 in 7.0 mi WSW 4.6 mph - N/A   Mostly Cloudy
1:55 AM 35.2 °F 28.8 °F 27.0 °F 72% 29.95 in 7.0 mi WSW 8.1 mph - N/A   Scattered Clouds
2:15 AM 36.7 °F 29.9 °F 27.9 °F 70% 29.95 in 7.0 mi WSW 9.2 mph - N/A   Mostly Cloudy
2:35 AM 37.8 °F 31.8 °F 29.1 °F 71% 29.95 in 7.0 mi WSW 8.1 mph - N/A   Overcast
2:55 AM 39.2 °F 33.6 °F 30.0 °F 70% 29.94 in 7.0 mi WSW 8.1 mph - N/A   Overcast
3:15 AM 39.6 °F 33.5 °F 30.2 °F 69% 29.94 in 7.0 mi WSW 9.2 mph - N/A   Overcast
3:35 AM 40.1 °F 34.7 °F 30.9 °F 70% 29.94 in 7.0 mi West 8.1 mph - N/A   Overcast
3:55 AM 40.1 °F 36.1 °F 31.1 °F 70% 29.94 in 7.0 mi West 5.8 mph - N/A   Overcast
4:15 AM 40.1 °F 35.3 °F 31.6 °F 72% 29.94 in 7.0 mi West 6.9 mph - N/A   Overcast
4:35 AM 41.0 °F 36.4 °F 31.8 °F 70% 29.93 in 7.0 mi West 6.9 mph - N/A   Overcast
4:55 AM 41.5 °F 35.9 °F 32.0 °F 69% 29.94 in 7.0 mi West 9.2 mph - N/A   Overcast
5:15 AM 41.4 °F 36.2 °F 32.0 °F 69% 29.93 in 7.0 mi West 8.1 mph - N/A   Overcast
5:35 AM 41.0 °F 35.8 °F 32.7 °F 72% 29.93 in 7.0 mi WSW 8.1 mph - N/A   Overcast
5:55 AM 41.4 °F 36.2 °F 33.1 °F 72% 29.93 in 7.0 mi WSW 8.1 mph - N/A   Overcast
6:15 AM 42.4 °F 37.5 °F 33.3 °F 70% 29.94 in 7.0 mi West 8.1 mph - N/A   Overcast
6:35 AM 41.7 °F 37.3 °F 33.4 °F 72% 29.93 in 5.0 mi West 6.9 mph - N/A   Haze
6:55 AM 41.4 °F 35.7 °F 33.8 °F 74% 29.93 in 7.0 mi West 9.2 mph - N/A   Overcast
7:15 AM 41.4 °F 36.2 °F 34.0 °F 75% 29.93 in 7.0 mi West 8.1 mph - N/A   Overcast
7:35 AM 41.0 °F 36.4 °F 34.0 °F 76% 29.93 in 7.0 mi WNW 6.9 mph - N/A   Overcast
7:55 AM 40.5 °F 35.1 °F 34.0 °F 78% 29.93 in 5.0 mi NW 8.1 mph - N/A   Haze
8:15 AM 40.5 °F 35.1 °F 34.2 °F 78% 29.93 in 5.0 mi WNW 8.1 mph - N/A   Haze
8:35 AM 41.0 °F 35.8 °F 34.7 °F 78% 29.94 in 4.0 mi WNW 8.1 mph - N/A   Haze
8:55 AM 42.4 °F 36.1 °F 35.1 °F 75% 29.95 in 5.0 mi NW 11.5 mph - N/A   Haze
9:15 AM 43.7 °F 36.6 °F 35.1 °F 72% 29.96 in 5.0 mi NW 15.0 mph - N/A   Haze
9:35 AM 44.8 °F 37.4 °F 35.1 °F 69% 29.96 in 5.0 mi NNW 17.3 mph - N/A   Haze
9:55 AM 44.6 °F 37.8 °F 34.7 °F 68% 29.95 in 5.0 mi NNW 15.0 mph - N/A   Haze
10:15 AM 45.5 °F 38.6 °F 34.5 °F 65% 29.96 in 5.0 mi NNW 16.1 mph - N/A   Haze
10:35 AM 46.6 °F - 34.9 °F 64% 29.96 in 5.0 mi NNW 13.8 mph - N/A   Haze
10:55 AM 47.5 °F - 34.9 °F 62% 29.97 in 7.0 mi NNW 12.7 mph - N/A   Clear
11:15 AM 48.7 °F - 35.1 °F 59% 29.97 in 5.0 mi NNW 12.7 mph - N/A   Haze
11:35 AM 49.1 °F - 34.5 °F 57% 29.98 in 7.0 mi North 16.1 mph 23.0 mph N/A   Clear
11:55 AM 49.8 °F - 34.2 °F 55% 29.97 in 5.0 mi NNW 15.0 mph - N/A   Haze
12:15 PM 50.5 °F - 33.1 °F 51% 29.96 in 4.0 mi North 13.8 mph - N/A   Haze
12:35 PM 51.8 °F - 34.5 °F 52% 29.96 in 5.0 mi NNW 16.1 mph 23.0 mph N/A   Haze
12:55 PM 52.0 °F - 34.5 °F 51% 29.97 in 5.0 mi NNW 17.3 mph 24.2 mph N/A   Haze
1:15 PM 52.5 °F - 34.7 °F 51% 29.95 in 5.0 mi North 13.8 mph 19.6 mph N/A   Haze
1:35 PM 52.7 °F - 34.5 °F 50% 29.95 in 7.0 mi NNW 15.0 mph 19.6 mph N/A   Clear
1:55 PM 52.7 °F - 34.7 °F 50% 29.95 in 7.0 mi NW 16.1 mph 20.7 mph N/A   Clear
2:15 PM 52.3 °F - 34.5 °F 51% 29.94 in 5.0 mi NNW 18.4 mph 23.0 mph N/A   Haze
2:35 PM 52.2 °F - 33.6 °F 49% 29.94 in 7.0 mi NNW 16.1 mph 19.6 mph N/A   Clear
2:55 PM 52.3 °F - 33.8 °F 49% 29.94 in 7.0 mi NW 17.3 mph 21.9 mph N/A   Clear
3:15 PM 52.0 °F - 32.2 °F 47% 29.93 in 5.0 mi NW 15.0 mph 20.7 mph N/A   Haze
3:35 PM 52.0 °F - 32.2 °F 47% 29.93 in 7.0 mi NNW 15.0 mph 19.6 mph N/A   Clear
3:55 PM 52.0 °F - 31.1 °F 45% 29.94 in 7.0 mi NW 16.1 mph - N/A   Clear
4:15 PM 51.8 °F - 31.1 °F 45% 29.93 in 7.0 mi NNW 16.1 mph - N/A   Clear
4:35 PM 51.4 °F - 29.7 °F 43% 29.94 in 5.0 mi NNW 13.8 mph 21.9 mph N/A   Haze
4:55 PM 51.3 °F - 30.6 °F 45% 29.94 in 7.0 mi NNW 13.8 mph - N/A   Clear
5:15 PM 50.0 °F - 28.2 °F 43% 29.94 in 7.0 mi NW 16.1 mph - N/A   Clear
5:35 PM 48.4 °F - 28.8 °F 47% 29.94 in 7.0 mi NNW 13.8 mph 17.3 mph N/A   Clear
5:55 PM 46.9 °F - 29.3 °F 50% 29.94 in 7.0 mi NNW 11.5 mph - N/A   Clear
6:15 PM 44.8 °F 40.4 °F 29.5 °F 55% 29.95 in 7.0 mi NW 8.1 mph - N/A   Clear
6:35 PM 41.9 °F 36.9 °F 29.1 °F 61% 29.95 in 10.0 mi NNW 8.1 mph - N/A   Clear
6:55 PM 41.4 °F 35.2 °F 29.8 °F 64% 29.95 in 7.0 mi NNW 10.4 mph - N/A   Clear
7:15 PM 41.2 °F 35.5 °F 29.3 °F 63% 29.96 in 10.0 mi NNW 9.2 mph - N/A   Clear
7:35 PM 39.7 °F 34.3 °F 28.8 °F 65% 29.97 in 7.0 mi NNW 8.1 mph - N/A   Clear
7:55 PM 37.8 °F 31.8 °F 28.2 °F 68% 29.97 in 7.0 mi North 8.1 mph - N/A   Clear
8:15 PM 38.3 °F 31.4 °F 28.2 °F 67% 29.97 in 7.0 mi North 10.4 mph - N/A   Clear
8:35 PM 37.2 °F 31.9 °F 27.5 °F 68% 29.97 in 7.0 mi NNW 6.9 mph - N/A   Clear
8:55 PM 35.4 °F 29.0 °F 26.8 °F 71% 29.98 in 7.0 mi NNW 8.1 mph - N/A   Clear
9:15 PM 32.4 °F 26.0 °F 25.5 °F 76% 29.99 in 7.0 mi NNW 6.9 mph - N/A   Clear
9:35 PM 32.2 °F 27.7 °F 26.2 °F 79% 29.99 in 7.0 mi North 4.6 mph - N/A   Clear
9:55 PM 32.0 °F 25.6 °F 25.7 °F 78% 30.00 in 10.0 mi NNW 6.9 mph - N/A   Clear
10:15 PM 33.8 °F 30.8 °F 26.6 °F 75% 30.00 in 7.0 mi North 3.5 mph - N/A   Clear
10:35 PM 33.3 °F - 26.1 °F 75% 30.00 in 7.0 mi Calm Calm - N/A   Clear
10:55 PM 32.0 °F 27.5 °F 25.3 °F 76% 30.01 in 7.0 mi NW 4.6 mph - N/A   Clear
11:15 PM 30.9 °F 25.2 °F 24.6 °F 77% 30.02 in 10.0 mi NW 5.8 mph - N/A   Clear
11:35 PM 29.7 °F 24.7 °F 24.3 °F 80% 30.02 in 10.0 mi NNW 4.6 mph - N/A   Clear
11:55 PM 29.7 °F 26.1 °F 24.6 °F 81% 30.02 in 10.0 mi NW 3.5 mph - N/A   Clear